Agate Beach, Washington
Current Conditions -  °F | °C
As of 7:53 AM on Wednesday 28 Jan 2015 (Local Time) from KCLM Reporting Station
Overcast Overcast  
Wind Chill:   Ceiling: 2100
Heat Index:   Visibility: 10mi
Dew Point:   Wind: 5mph
Humidity: 89%   Direction: 230°SW
Pressure: 30.36"   Gusts: NA
Location:  48.1359°N, 123.734°W
Report Text: KCLM 281553Z AUTO 23004KT 10SM OVC021 03/01 A3036 RMK AO2 SLP283 T00280011 $
Loading
Personal Weather Stations






























Interactive Weather Map New forecast layout! Learn more

10-Day Weather Forecast

Advertisements
Track Severe Weather on mobile